createdAt,value
2018-12-06T00:00:58.241Z,95318.51
2018-12-06T00:15:51.131Z,95320.41
2018-12-06T00:30:53.078Z,95308.18
2018-12-06T00:45:52.927Z,95316.53
2018-12-06T01:00:52.919Z,95307.81
2018-12-06T01:15:50.874Z,95312.58
2018-12-06T01:30:52.481Z,95302.57
2018-12-06T01:45:51.227Z,95300.28
2018-12-06T02:00:52.131Z,95301.58
2018-12-06T02:15:51.591Z,95288.69
2018-12-06T02:30:52.197Z,95286.03
2018-12-06T02:45:51.266Z,95293.38
2018-12-06T03:00:53.771Z,95279.85
2018-12-06T03:15:51.166Z,95280.30
2018-12-06T03:30:54.633Z,95277.34
2018-12-06T03:45:51.429Z,95273.55
2018-12-06T04:00:53.996Z,95280.23
2018-12-06T04:15:56.626Z,95282.24
2018-12-06T04:30:53.758Z,95292.03
2018-12-06T04:45:54.126Z,95297.58
2018-12-06T05:00:52.505Z,95302.88
2018-12-06T05:15:53.837Z,95309.50
2018-12-06T05:30:50.836Z,95299.57
2018-12-06T05:45:50.675Z,95289.06
2018-12-06T06:00:50.632Z,95292.72
2018-12-06T06:15:51.576Z,95306.33
2018-12-06T06:30:56.186Z,95309.12
2018-12-06T06:45:51.483Z,95320.94
2018-12-06T07:00:50.763Z,95331.16
2018-12-06T07:15:50.730Z,95331.89
2018-12-06T07:30:52.061Z,95326.91
2018-12-06T07:45:51.091Z,95329.10
2018-12-06T08:15:50.867Z,95335.28
2018-12-06T08:30:53.816Z,95335.55
2018-12-06T08:45:53.340Z,95328.37
2018-12-06T09:00:53.244Z,95327.11
2018-12-06T09:15:53.157Z,95316.52
2018-12-06T09:30:51.409Z,95284.75
2018-12-06T09:45:51.474Z,95268.55
2018-12-06T10:00:51.344Z,95243.14
2018-12-06T10:15:51.199Z,95234.56
2018-12-06T10:30:54.018Z,95236.48
2018-12-06T10:45:51.459Z,95215.41
2018-12-06T11:00:58.621Z,95199.65
2018-12-06T11:15:51.999Z,95161.94
2018-12-06T11:30:51.798Z,95157.08
2018-12-06T11:45:50.606Z,95147.61
2018-12-06T12:00:51.691Z,95146.95
2018-12-06T12:15:53.837Z,95144.70
2018-12-06T12:30:52.892Z,95150.98
2018-12-06T12:45:50.981Z,95148.74
2018-12-06T13:00:50.867Z,95138.42
2018-12-06T13:15:50.711Z,95145.41
2018-12-06T13:30:51.174Z,95139.84
2018-12-06T13:45:52.432Z,95136.20
2018-12-06T14:00:51.060Z,95130.81
2018-12-06T14:15:52.850Z,95139.88
2018-12-06T14:30:51.112Z,95128.16
2018-12-06T14:45:51.120Z,95129.66
2018-12-06T15:00:51.531Z,95132.31
2018-12-06T15:15:51.095Z,95130.19
2018-12-06T15:30:51.498Z,95128.38
2018-12-06T15:45:51.398Z,95133.55
2018-12-06T16:00:51.252Z,95137.52
2018-12-06T16:15:51.306Z,95145.67
2018-12-06T16:45:53.790Z,95179.23
2018-12-06T17:00:59.394Z,95187.23
2018-12-06T17:15:51.461Z,95201.16
2018-12-06T17:30:50.919Z,95214.98
2018-12-06T18:00:53.009Z,95208.53
2018-12-06T18:15:53.698Z,95184.50
2018-12-06T18:30:51.833Z,95197.32
2018-12-06T18:45:50.418Z,95205.65
2018-12-06T19:00:51.013Z,95200.48
2018-12-06T19:15:50.923Z,95215.21
2018-12-06T19:30:54.117Z,95219.67
2018-12-06T19:45:53.081Z,95241.91
2018-12-06T20:00:52.054Z,95243.61
2018-12-06T20:15:50.895Z,95244.59
2018-12-06T20:30:51.465Z,95251.90
2018-12-06T20:45:54.003Z,95255.25
2018-12-06T21:00:51.367Z,95233.75
2018-12-06T21:15:53.873Z,95260.43
2018-12-06T21:30:51.471Z,95258.09
2018-12-06T21:45:51.352Z,95254.33
2018-12-06T22:00:51.310Z,95243.55
2018-12-06T22:15:51.304Z,95270.00
2018-12-06T22:30:54.125Z,95263.20
2018-12-06T22:45:59.648Z,95233.95
2018-12-06T23:00:53.648Z,95220.41
2018-12-06T23:15:51.398Z,95219.64
2018-12-06T23:30:52.303Z,95235.44
2018-12-06T23:45:50.717Z,95235.67
